createdAt,value
2018-01-19T00:00:51.263Z,92.09
2018-01-19T00:01:51.255Z,92.57
2018-01-19T00:02:51.244Z,92.57
2018-01-19T00:03:51.235Z,92.28
2018-01-19T00:04:51.226Z,92.09
2018-01-19T00:05:51.213Z,92.94
2018-01-19T00:06:51.204Z,92.66
2018-01-19T00:07:51.188Z,92.66
2018-01-19T00:08:51.186Z,92.28
2018-01-19T00:09:51.178Z,91.99
2018-01-19T00:10:51.172Z,92.57
2018-01-19T00:11:51.178Z,92.94
2018-01-19T00:12:51.151Z,92.85
2018-01-19T00:13:51.140Z,92.90
2018-01-19T00:14:51.137Z,93.32
2018-01-19T00:15:51.134Z,93.56
2018-01-19T00:16:51.115Z,93.56
2018-01-19T00:17:51.101Z,93.37
2018-01-19T00:18:51.088Z,93.46
2018-01-19T00:19:51.075Z,93.37
2018-01-19T00:20:51.072Z,93.27
2018-01-19T00:21:51.062Z,93.65
2018-01-19T00:22:51.055Z,94.13
2018-01-19T00:23:51.055Z,93.94
2018-01-19T00:24:51.032Z,93.75
2018-01-19T00:25:51.021Z,93.94
2018-01-19T00:26:51.019Z,94.04
2018-01-19T00:27:51.022Z,94.23
2018-01-19T00:28:51.000Z,94.13
2018-01-19T00:29:50.981Z,94.51
2018-01-19T00:30:50.970Z,94.23
2018-01-19T00:31:51.007Z,94.51
2018-01-19T00:32:50.954Z,94.13
2018-01-19T00:33:50.957Z,94.32
2018-01-19T00:34:50.927Z,95.07
2018-01-19T00:35:50.925Z,94.98
2018-01-19T00:36:50.929Z,95.26
2018-01-19T00:37:50.934Z,95.07
2018-01-19T00:38:50.885Z,94.98
2018-01-19T00:39:50.906Z,94.89
2018-01-19T00:40:50.865Z,95.17
2018-01-19T00:41:50.860Z,95.17
2018-01-19T00:42:50.854Z,94.89
2018-01-19T00:43:50.846Z,95.17
2018-01-19T00:44:50.858Z,94.98
2018-01-19T00:45:50.820Z,95.36
2018-01-19T00:46:50.814Z,94.98
2018-01-19T00:47:50.801Z,95.17
2018-01-19T00:48:50.790Z,94.98
2018-01-19T00:49:50.773Z,94.98
2018-01-19T00:50:50.774Z,94.89
2018-01-19T00:51:50.764Z,94.79
2018-01-19T00:52:50.747Z,94.70
2018-01-19T00:53:50.749Z,94.98
2018-01-19T00:54:50.732Z,95.07
2018-01-19T00:55:50.726Z,95.07
2018-01-19T00:56:50.710Z,94.79
2018-01-19T00:57:50.699Z,95.07
2018-01-19T00:58:50.706Z,94.79
2018-01-19T00:59:50.683Z,95.07
2018-01-19T01:00:50.683Z,94.89
2018-01-19T01:01:50.656Z,95.17
2018-01-19T01:02:50.649Z,95.07
2018-01-19T01:03:50.654Z,95.55
2018-01-19T01:04:50.631Z,95.17
2018-01-19T01:05:50.632Z,95.65
2018-01-19T01:06:50.612Z,95.26
2018-01-19T01:07:50.608Z,95.45
2018-01-19T01:08:50.592Z,95.45
2018-01-19T01:09:50.584Z,95.45
2018-01-19T01:10:50.608Z,95.36
2018-01-19T01:11:50.569Z,95.36
2018-01-19T01:12:50.552Z,95.26
2018-01-19T01:13:50.552Z,95.45
2018-01-19T01:14:50.537Z,95.26
2018-01-19T01:15:50.548Z,95.45
2018-01-19T01:16:50.533Z,95.26
2018-01-19T01:17:50.510Z,95.26
2018-01-19T01:18:50.513Z,95.55
2018-01-19T01:19:50.487Z,95.07
2018-01-19T01:20:50.474Z,95.26
2018-01-19T01:21:50.469Z,95.45
2018-01-19T01:22:50.463Z,94.98
2018-01-19T01:23:50.447Z,94.89
2018-01-19T01:24:50.440Z,94.98
2018-01-19T01:25:50.426Z,95.17
2018-01-19T01:26:50.427Z,95.36
2018-01-19T01:27:50.408Z,95.07
2018-01-19T01:28:50.419Z,95.65
2018-01-19T01:29:50.386Z,95.07
2018-01-19T01:30:50.377Z,94.89
2018-01-19T01:31:50.366Z,95.65
2018-01-19T01:32:50.356Z,95.17
2018-01-19T01:33:50.343Z,94.79
2018-01-19T01:34:50.341Z,94.89
2018-01-19T01:35:50.324Z,94.89
2018-01-19T01:36:50.313Z,95.26
2018-01-19T01:37:50.311Z,95.55
2018-01-19T01:38:50.301Z,95.45
2018-01-19T01:39:50.289Z,95.36
2018-01-19T01:40:50.288Z,95.17
2018-01-19T01:41:50.264Z,95.26
2018-01-19T01:42:02.264Z,95.65
2018-01-19T01:43:50.253Z,95.65
2018-01-19T01:44:50.238Z,95.84
2018-01-19T01:45:50.243Z,95.74
2018-01-19T01:46:50.212Z,96.22
2018-01-19T01:47:50.219Z,96.41
2018-01-19T01:48:50.196Z,96.31
2018-01-19T01:49:50.197Z,96.31
2018-01-19T01:50:50.179Z,96.31
2018-01-19T01:51:50.178Z,96.88
2018-01-19T01:52:50.166Z,96.69
2018-01-19T01:53:50.153Z,96.50
2018-01-19T01:54:50.189Z,96.41
2018-01-19T01:55:50.127Z,96.88
2018-01-19T01:56:50.134Z,96.78
2018-01-19T01:57:50.584Z,95.93
2018-01-19T01:58:50.629Z,96.03
2018-01-19T01:59:50.417Z,96.41
2018-01-19T02:00:50.089Z,96.45
2018-01-19T02:01:50.069Z,96.12
2018-01-19T02:02:50.061Z,95.79
2018-01-19T02:03:50.044Z,95.98
2018-01-19T02:04:50.046Z,95.98
2018-01-19T02:05:50.035Z,95.60
2018-01-19T02:06:50.021Z,95.50
2018-01-19T02:07:50.017Z,95.69
2018-01-19T02:08:50.003Z,95.88
2018-01-19T02:09:49.991Z,96.08
2018-01-19T02:10:50.012Z,96.36
2018-01-19T02:11:49.968Z,95.88
2018-01-19T02:12:49.955Z,95.60
2018-01-19T02:13:49.951Z,95.69
2018-01-19T02:14:49.934Z,95.69
2018-01-19T02:15:49.928Z,95.88
2018-01-19T02:16:49.918Z,95.88
2018-01-19T02:17:49.909Z,95.79
2018-01-19T02:18:49.912Z,96.17
2018-01-19T02:19:49.900Z,96.45
2018-01-19T02:20:49.891Z,96.31
2018-01-19T02:21:49.875Z,96.03
2018-01-19T02:22:49.864Z,96.41
2018-01-19T02:23:49.864Z,97.26
2018-01-19T02:24:49.850Z,97.16
2018-01-19T02:25:49.832Z,97.35
2018-01-19T02:26:49.860Z,97.35
2018-01-19T02:27:49.814Z,97.35
2018-01-19T02:28:49.803Z,97.50
2018-01-19T02:29:49.798Z,97.54
2018-01-19T02:30:49.783Z,96.88
2018-01-19T02:31:49.774Z,97.31
2018-01-19T02:32:49.763Z,97.40
2018-01-19T02:33:49.756Z,97.50
2018-01-19T02:34:49.746Z,97.31
2018-01-19T02:35:49.748Z,97.50
2018-01-19T02:36:49.726Z,96.92
2018-01-19T02:37:49.715Z,96.73
2018-01-19T02:38:49.719Z,97.02
2018-01-19T02:39:49.704Z,96.73
2018-01-19T02:40:49.686Z,96.55
2018-01-19T02:41:49.674Z,96.64
2018-01-19T02:42:49.669Z,96.36
2018-01-19T02:43:49.661Z,96.64
2018-01-19T02:44:49.655Z,96.36
2018-01-19T02:45:49.652Z,96.36
2018-01-19T02:46:49.628Z,96.26
2018-01-19T02:47:49.620Z,95.98
2018-01-19T02:48:49.618Z,96.45
2018-01-19T02:49:49.619Z,96.73
2018-01-19T02:50:49.586Z,96.73
2018-01-19T02:51:49.592Z,96.45
2018-01-19T02:52:49.599Z,96.64
2018-01-19T02:53:49.562Z,96.26
2018-01-19T02:54:49.549Z,96.45
2018-01-19T02:55:49.552Z,96.36
2018-01-19T02:56:49.526Z,96.64
2018-01-19T02:57:49.529Z,95.69
2018-01-19T02:58:49.513Z,95.98
2018-01-19T02:59:49.507Z,96.17
2018-01-19T03:00:49.496Z,96.36
2018-01-19T03:01:49.478Z,96.17
2018-01-19T03:02:49.469Z,95.69
2018-01-19T03:03:49.453Z,96.64
2018-01-19T03:04:49.459Z,96.36
2018-01-19T03:05:49.448Z,95.60
2018-01-19T03:06:49.436Z,95.88
2018-01-19T03:07:49.424Z,95.88
2018-01-19T03:08:49.412Z,95.69
2018-01-19T03:09:49.406Z,95.69
2018-01-19T03:10:49.406Z,95.88
2018-01-19T03:11:49.383Z,95.22
2018-01-19T03:12:49.371Z,95.50
2018-01-19T03:13:49.381Z,95.50
2018-01-19T03:14:49.348Z,95.31
2018-01-19T03:15:49.342Z,95.12
2018-01-19T03:16:49.332Z,95.03
2018-01-19T03:17:49.342Z,95.03
2018-01-19T03:18:49.317Z,95.22
2018-01-19T03:19:49.327Z,95.12
2018-01-19T03:20:49.291Z,94.93
2018-01-19T03:21:49.295Z,95.12
2018-01-19T03:22:49.286Z,95.12
2018-01-19T03:23:49.294Z,95.12
2018-01-19T03:24:49.262Z,94.93
2018-01-19T03:25:49.260Z,94.46
2018-01-19T03:26:49.256Z,94.84
2018-01-19T03:27:49.224Z,95.03
2018-01-19T03:28:49.216Z,95.03
2018-01-19T03:29:49.205Z,94.46
2018-01-19T03:30:49.198Z,94.56
2018-01-19T03:31:49.229Z,94.46
2018-01-19T03:32:49.177Z,94.56
2018-01-19T03:33:49.166Z,94.46
2018-01-19T03:34:49.155Z,94.46
2018-01-19T03:35:49.163Z,94.46
2018-01-19T03:36:49.136Z,94.74
2018-01-19T03:37:49.136Z,94.46
2018-01-19T03:38:49.129Z,94.65
2018-01-19T03:39:49.138Z,94.56
2018-01-19T03:40:49.103Z,94.46
2018-01-19T03:41:49.145Z,94.46
2018-01-19T03:42:49.086Z,94.27
2018-01-19T03:43:49.097Z,94.84
2018-01-19T03:44:49.070Z,94.18
2018-01-19T03:45:49.050Z,93.89
2018-01-19T03:46:49.043Z,94.74
2018-01-19T03:47:49.056Z,93.99
2018-01-19T03:48:49.024Z,94.08
2018-01-19T03:49:49.017Z,93.99
2018-01-19T03:50:49.006Z,93.99
2018-01-19T03:51:49.002Z,94.56
2018-01-19T03:52:48.986Z,94.37
2018-01-19T03:53:48.982Z,94.08
2018-01-19T03:54:48.977Z,94.27
2018-01-19T03:55:48.963Z,94.27
2018-01-19T03:56:48.979Z,94.37
2018-01-19T03:57:48.950Z,94.56
2018-01-19T03:58:48.938Z,94.56
2018-01-19T03:59:48.927Z,94.27
2018-01-19T04:00:48.915Z,94.56
2018-01-19T04:01:48.904Z,94.65
2018-01-19T04:02:48.912Z,94.27
2018-01-19T04:03:48.891Z,94.46
2018-01-19T04:04:48.906Z,94.18
2018-01-19T04:05:48.863Z,94.56
2018-01-19T04:06:48.861Z,95.03
2018-01-19T04:07:48.844Z,95.03
2018-01-19T04:08:48.841Z,95.41
2018-01-19T04:09:48.828Z,95.88
2018-01-19T04:10:48.853Z,95.60
2018-01-19T04:11:48.809Z,95.79
2018-01-19T04:12:48.798Z,95.60
2018-01-19T04:13:48.814Z,95.88
2018-01-19T04:14:48.825Z,95.79
2018-01-19T04:15:48.769Z,95.88
2018-01-19T04:16:48.760Z,96.36
2018-01-19T04:17:48.753Z,96.36
2018-01-19T04:18:48.746Z,96.45
2018-01-19T04:19:48.730Z,96.17
2018-01-19T04:20:48.757Z,95.79
2018-01-19T04:21:48.720Z,95.98
2018-01-19T04:22:48.734Z,96.36
2018-01-19T04:23:48.717Z,96.17
2018-01-19T04:24:48.711Z,95.79
2018-01-19T04:25:48.692Z,95.88
2018-01-19T04:26:48.698Z,95.88
2018-01-19T04:27:48.651Z,96.36
2018-01-19T04:28:48.662Z,96.55
2018-01-19T04:29:48.636Z,96.73
2018-01-19T04:30:48.625Z,96.08
2018-01-19T04:31:48.618Z,96.17
2018-01-19T04:32:48.605Z,96.45
2018-01-19T04:33:48.616Z,96.36
2018-01-19T04:34:48.590Z,96.08
2018-01-19T04:35:48.596Z,95.60
2018-01-19T04:36:48.580Z,96.17
2018-01-19T04:37:48.569Z,96.08
2018-01-19T04:38:48.574Z,96.45
2018-01-19T04:39:48.541Z,96.45
2018-01-19T04:40:48.550Z,96.17
2018-01-19T04:41:48.520Z,95.88
2018-01-19T04:42:48.509Z,95.79
2018-01-19T04:43:48.497Z,95.88
2018-01-19T04:44:48.490Z,96.08
2018-01-19T04:45:48.516Z,96.17
2018-01-19T04:46:48.489Z,96.26
2018-01-19T04:47:48.479Z,96.17
2018-01-19T04:48:48.453Z,96.36
2018-01-19T04:49:48.452Z,96.45
2018-01-19T04:50:48.453Z,96.17
2018-01-19T04:51:48.424Z,96.17
2018-01-19T04:52:48.434Z,96.36
2018-01-19T04:53:48.412Z,96.45
2018-01-19T04:54:48.417Z,95.79
2018-01-19T04:55:48.394Z,95.60
2018-01-19T04:56:48.378Z,95.79
2018-01-19T04:57:48.375Z,95.31
2018-01-19T04:58:48.355Z,95.50
2018-01-19T04:59:48.345Z,95.79
2018-01-19T05:00:48.363Z,95.22
2018-01-19T05:01:48.332Z,94.93
2018-01-19T05:02:48.320Z,95.12
2018-01-19T05:03:48.310Z,95.03
2018-01-19T05:04:48.308Z,95.31
2018-01-19T05:05:48.290Z,94.18
2018-01-19T05:06:48.304Z,94.27
2018-01-19T05:07:48.271Z,94.46
2018-01-19T05:08:48.260Z,94.37
2018-01-19T05:09:48.251Z,94.93
2018-01-19T05:10:48.254Z,94.74
2018-01-19T05:11:48.235Z,94.74
2018-01-19T05:12:48.228Z,94.46
2018-01-19T05:13:48.208Z,94.65
2018-01-19T05:14:48.199Z,94.18
2018-01-19T05:15:48.200Z,94.56
2018-01-19T05:16:48.189Z,94.74
2018-01-19T05:17:48.175Z,94.18
2018-01-19T05:18:48.171Z,94.74
2018-01-19T05:19:48.172Z,93.80
2018-01-19T05:20:48.142Z,94.18
2018-01-19T05:21:48.162Z,93.89
2018-01-19T05:22:48.121Z,93.89
2018-01-19T05:23:48.116Z,93.89
2018-01-19T05:24:48.119Z,93.99
2018-01-19T05:25:48.129Z,94.37
2018-01-19T05:26:48.113Z,94.56
2018-01-19T05:27:48.075Z,94.56
2018-01-19T05:28:48.094Z,93.99
2018-01-19T05:29:48.057Z,94.56
2018-01-19T05:30:48.080Z,94.18
2018-01-19T05:31:48.042Z,94.27
2018-01-19T05:32:48.034Z,95.12
2018-01-19T05:33:48.022Z,94.93
2018-01-19T05:34:48.016Z,94.93
2018-01-19T05:35:48.006Z,95.03
2018-01-19T05:36:47.991Z,94.84
2018-01-19T05:37:48.004Z,94.93
2018-01-19T05:38:47.999Z,95.03
2018-01-19T05:39:47.966Z,95.41
2018-01-19T05:40:47.980Z,94.84
2018-01-19T05:41:47.959Z,94.93
2018-01-19T05:42:47.947Z,94.93
2018-01-19T05:43:47.924Z,94.93
2018-01-19T05:44:52.162Z,95.03
2018-01-19T05:45:47.907Z,94.84
2018-01-19T05:46:47.897Z,95.12
2018-01-19T05:47:47.889Z,94.27
2018-01-19T05:48:47.884Z,94.18
2018-01-19T05:49:47.871Z,94.46
2018-01-19T05:50:47.884Z,94.27
2018-01-19T05:51:47.932Z,94.56
2018-01-19T05:52:47.868Z,94.74
2018-01-19T05:53:47.872Z,94.37
2018-01-19T05:54:47.820Z,94.56
2018-01-19T05:55:47.842Z,94.27
2018-01-19T05:56:47.821Z,93.99
2018-01-19T05:57:48.493Z,93.99
2018-01-19T05:58:48.531Z,93.70
2018-01-19T05:59:47.770Z,93.89
2018-01-19T06:00:47.764Z,94.08
2018-01-19T06:01:48.509Z,94.18
2018-01-19T06:02:47.755Z,93.70
2018-01-19T06:03:47.769Z,93.32
2018-01-19T06:04:47.731Z,93.61
2018-01-19T06:05:47.729Z,93.70
2018-01-19T06:06:47.727Z,93.23
2018-01-19T06:07:47.696Z,93.61
2018-01-19T06:08:47.695Z,92.94
2018-01-19T06:09:47.684Z,93.04
2018-01-19T06:10:47.667Z,93.23
2018-01-19T06:11:47.664Z,93.13
2018-01-19T06:12:47.651Z,92.94
2018-01-19T06:13:47.635Z,92.94
2018-01-19T06:14:47.651Z,93.32
2018-01-19T06:15:47.618Z,93.41
2018-01-19T06:16:48.503Z,93.51
2018-01-19T06:17:47.606Z,93.23
2018-01-19T06:18:47.594Z,93.89
2018-01-19T06:19:50.528Z,98.16
2018-01-19T06:20:47.590Z,99.77
2018-01-19T06:21:47.564Z,99.20
2018-01-19T06:22:47.554Z,96.45
2018-01-19T06:23:47.543Z,96.55
2018-01-19T06:24:47.533Z,97.74
2018-01-19T06:25:50.558Z,99.99
2018-01-19T06:26:47.534Z,99.99
2018-01-19T06:27:47.559Z,97.92
2018-01-19T06:28:47.514Z,98.68
2018-01-19T06:29:47.544Z,97.36
2018-01-19T06:30:47.489Z,96.22
2018-01-19T06:31:47.521Z,95.17
2018-01-19T06:32:47.462Z,95.46
2018-01-19T06:33:47.449Z,98.02
2018-01-19T06:34:47.453Z,96.50
2018-01-19T06:35:47.448Z,95.51
2018-01-19T06:36:47.453Z,94.93
2018-01-19T06:37:47.424Z,92.99
2018-01-19T06:38:47.396Z,92.99
2018-01-19T06:39:47.418Z,93.08
2018-01-19T06:40:47.380Z,92.14
2018-01-19T06:41:47.444Z,91.38
2018-01-19T06:42:47.361Z,91.09
2018-01-19T06:43:47.355Z,90.62
2018-01-19T06:44:47.343Z,91.09
2018-01-19T06:45:47.340Z,91.00
2018-01-19T06:46:47.332Z,90.81
2018-01-19T06:47:47.338Z,91.19
2018-01-19T06:48:47.307Z,91.00
2018-01-19T06:49:47.296Z,91.09
2018-01-19T06:50:47.293Z,91.00
2018-01-19T06:51:47.278Z,91.00
2018-01-19T06:52:47.295Z,90.52
2018-01-19T06:53:47.259Z,90.24
2018-01-19T06:54:47.262Z,91.09
2018-01-19T06:55:47.241Z,91.66
2018-01-19T06:56:47.236Z,91.47
2018-01-19T06:57:47.246Z,91.38
2018-01-19T06:58:47.245Z,90.81
2018-01-19T06:59:47.214Z,91.00
2018-01-19T07:00:47.202Z,90.62
2018-01-19T07:01:47.196Z,91.19
2018-01-19T07:02:47.179Z,91.09
2018-01-19T07:03:47.175Z,90.62
2018-01-19T07:04:47.174Z,91.09
2018-01-19T07:05:47.148Z,90.90
2018-01-19T07:06:47.152Z,91.38
2018-01-19T07:07:47.152Z,91.38
2018-01-19T07:08:47.135Z,91.66
2018-01-19T07:09:47.116Z,91.28
2018-01-19T07:10:47.108Z,92.42
2018-01-19T07:11:47.087Z,91.85
2018-01-19T07:12:47.079Z,92.04
2018-01-19T07:13:47.084Z,92.04
2018-01-19T07:14:47.072Z,91.56
2018-01-19T07:15:47.062Z,91.28
2018-01-19T07:16:47.046Z,91.33
2018-01-19T07:17:47.051Z,91.56
2018-01-19T07:18:47.059Z,92.04
2018-01-19T07:19:47.029Z,91.42
2018-01-19T07:20:47.013Z,91.71
2018-01-19T07:21:47.003Z,91.56
2018-01-19T07:22:46.989Z,91.99
2018-01-19T07:23:46.990Z,92.09
2018-01-19T07:24:47.014Z,91.42
2018-01-19T07:25:46.984Z,91.42
2018-01-19T07:26:46.961Z,91.80
2018-01-19T07:27:46.944Z,91.99
2018-01-19T07:28:46.930Z,91.99
2018-01-19T07:29:46.929Z,91.80
2018-01-19T07:30:46.923Z,91.52
2018-01-19T07:31:46.907Z,91.71
2018-01-19T07:32:46.929Z,92.18
2018-01-19T07:33:46.888Z,91.99
2018-01-19T07:34:46.881Z,91.61
2018-01-19T07:35:46.876Z,91.99
2018-01-19T07:36:46.891Z,91.80
2018-01-19T07:37:46.847Z,91.99
2018-01-19T07:38:46.831Z,92.18
2018-01-19T07:39:46.825Z,92.09
2018-01-19T07:40:46.822Z,92.09
2018-01-19T07:41:46.810Z,91.99
2018-01-19T07:42:46.810Z,91.80
2018-01-19T07:43:46.787Z,92.09
2018-01-19T07:44:46.787Z,92.09
2018-01-19T07:45:46.789Z,91.61
2018-01-19T07:46:46.763Z,91.80
2018-01-19T07:47:46.758Z,92.14
2018-01-19T07:48:46.758Z,92.47
2018-01-19T07:49:46.751Z,92.23
2018-01-19T07:50:46.733Z,91.85
2018-01-19T07:51:46.724Z,92.33
2018-01-19T07:52:46.704Z,92.38
2018-01-19T07:53:46.690Z,92.42
2018-01-19T07:54:46.702Z,92.71
2018-01-19T07:55:46.697Z,92.71
2018-01-19T07:56:46.663Z,92.52
2018-01-19T07:57:46.692Z,92.90
2018-01-19T07:58:46.693Z,92.23
2018-01-19T07:59:46.647Z,91.94
2018-01-19T08:00:46.640Z,92.33
2018-01-19T08:01:46.620Z,93.18
2018-01-19T08:02:46.611Z,92.80
2018-01-19T08:03:46.598Z,92.66
2018-01-19T08:04:46.607Z,92.94
2018-01-19T08:05:46.595Z,92.28
2018-01-19T08:06:46.574Z,92.47
2018-01-19T08:07:46.579Z,93.13
2018-01-19T08:08:46.580Z,92.94
2018-01-19T08:09:46.553Z,92.94
2018-01-19T08:10:46.537Z,92.76
2018-01-19T08:11:46.523Z,92.85
2018-01-19T08:12:46.522Z,92.90
2018-01-19T08:13:46.511Z,93.08
2018-01-19T08:14:46.498Z,93.27
2018-01-19T08:15:46.495Z,92.61
2018-01-19T08:16:46.488Z,92.38
2018-01-19T08:17:46.489Z,92.52
2018-01-19T08:18:46.463Z,93.08
2018-01-19T08:19:46.449Z,92.38
2018-01-19T08:20:46.439Z,92.52
2018-01-19T08:21:46.438Z,92.42
2018-01-19T08:22:46.434Z,92.33
2018-01-19T08:23:46.407Z,92.33
2018-01-19T08:24:46.455Z,92.04
2018-01-19T08:25:46.392Z,91.75
2018-01-19T08:26:46.406Z,92.14
2018-01-19T08:27:46.374Z,91.99
2018-01-19T08:28:46.381Z,92.04
2018-01-19T08:29:46.356Z,91.28
2018-01-19T08:30:46.348Z,91.66
2018-01-19T08:31:46.357Z,92.14
2018-01-19T08:32:46.332Z,91.75
2018-01-19T08:33:46.319Z,91.94
2018-01-19T08:34:46.305Z,91.47
2018-01-19T08:35:46.299Z,91.38
2018-01-19T08:36:46.288Z,91.66
2018-01-19T08:37:46.279Z,91.09
2018-01-19T08:38:46.282Z,91.19
2018-01-19T08:39:46.260Z,91.09
2018-01-19T08:40:46.256Z,91.00
2018-01-19T08:41:46.249Z,90.43
2018-01-19T08:42:46.235Z,90.52
2018-01-19T08:43:46.223Z,90.24
2018-01-19T08:44:46.221Z,90.52
2018-01-19T08:45:46.207Z,90.24
2018-01-19T08:46:46.202Z,90.33
2018-01-19T08:47:46.187Z,90.33
2018-01-19T08:48:46.190Z,90.14
2018-01-19T08:49:46.223Z,89.67
2018-01-19T08:50:46.173Z,89.95
2018-01-19T08:51:46.148Z,89.67
2018-01-19T08:52:46.156Z,89.76
2018-01-19T08:53:46.136Z,89.86
2018-01-19T08:54:46.140Z,89.76
2018-01-19T08:55:46.119Z,89.20
2018-01-19T08:56:46.110Z,89.86
2018-01-19T08:57:46.100Z,89.58
2018-01-19T08:58:46.080Z,89.76
2018-01-19T08:59:46.075Z,89.10
2018-01-19T08:59:58.083Z,89.29
2018-01-19T09:01:46.052Z,88.81
2018-01-19T09:02:46.058Z,89.10
2018-01-19T09:03:46.060Z,89.39
2018-01-19T09:04:46.030Z,89.00
2018-01-19T09:05:46.020Z,88.72
2018-01-19T09:06:46.010Z,89.39
2018-01-19T09:07:46.020Z,89.48
2018-01-19T09:08:45.988Z,89.39
2018-01-19T09:09:45.994Z,88.72
2018-01-19T09:10:45.978Z,88.91
2018-01-19T09:11:45.964Z,89.20
2018-01-19T09:12:45.958Z,89.29
2018-01-19T09:13:45.957Z,88.91
2018-01-19T09:14:45.937Z,89.20
2018-01-19T09:15:45.922Z,89.48
2018-01-19T09:16:45.931Z,89.39
2018-01-19T09:17:45.905Z,89.20
2018-01-19T09:18:45.902Z,89.29
2018-01-19T09:19:45.895Z,89.29
2018-01-19T09:20:45.874Z,89.10
2018-01-19T09:21:45.871Z,89.10
2018-01-19T09:22:45.862Z,89.48
2018-01-19T09:23:45.852Z,89.48
2018-01-19T09:24:45.865Z,89.39
2018-01-19T09:25:45.831Z,88.81
2018-01-19T09:26:45.834Z,89.29
2018-01-19T09:27:45.821Z,89.58
2018-01-19T09:28:45.809Z,88.53
2018-01-19T09:29:45.807Z,88.91
2018-01-19T09:30:45.785Z,89.20
2018-01-19T09:31:45.779Z,89.29
2018-01-19T09:32:45.775Z,88.72
2018-01-19T09:33:45.757Z,88.81
2018-01-19T09:34:45.764Z,88.72
2018-01-19T09:35:45.736Z,88.34
2018-01-19T09:36:45.726Z,87.96
2018-01-19T09:37:45.739Z,87.58
2018-01-19T09:38:45.709Z,87.68
2018-01-19T09:39:45.716Z,87.49
2018-01-19T09:40:45.696Z,87.24
2018-01-19T09:41:45.684Z,86.77
2018-01-19T09:42:45.676Z,87.11
2018-01-19T09:43:45.673Z,87.30
2018-01-19T09:44:45.655Z,87.15
2018-01-19T09:45:45.675Z,87.05
2018-01-19T09:46:45.651Z,86.77
2018-01-19T09:47:45.634Z,86.68
2018-01-19T09:48:45.617Z,86.68
2018-01-19T09:49:45.604Z,86.68
2018-01-19T09:50:45.598Z,86.87
2018-01-19T09:51:45.593Z,86.68
2018-01-19T09:52:45.579Z,85.91
2018-01-19T09:53:45.572Z,85.72
2018-01-19T09:54:45.560Z,84.68
2018-01-19T09:55:45.549Z,84.72
2018-01-19T09:56:45.549Z,83.83
2018-01-19T09:57:45.530Z,84.11
2018-01-19T09:58:45.523Z,83.64
2018-01-19T09:59:45.524Z,84.06
2018-01-19T10:00:45.525Z,83.20
2018-01-19T10:01:45.511Z,83.20
2018-01-19T10:02:45.492Z,83.30
2018-01-19T10:03:45.487Z,83.11
2018-01-19T10:04:45.476Z,83.20
2018-01-19T10:05:45.468Z,82.45
2018-01-19T10:06:45.465Z,81.78
2018-01-19T10:07:45.457Z,81.78
2018-01-19T10:08:45.435Z,81.30
2018-01-19T10:09:45.437Z,81.30
2018-01-19T10:10:45.428Z,80.55
2018-01-19T10:11:45.424Z,81.02
2018-01-19T10:12:45.427Z,81.06
2018-01-19T10:13:45.407Z,81.25
2018-01-19T10:14:45.391Z,80.68
2018-01-19T10:15:45.379Z,80.96
2018-01-19T10:16:45.386Z,80.58
2018-01-19T10:17:45.363Z,79.92
2018-01-19T10:18:45.392Z,80.02
2018-01-19T10:19:45.348Z,80.21
2018-01-19T10:20:45.343Z,79.92
2018-01-19T10:21:45.331Z,79.73
2018-01-19T10:22:45.331Z,80.02
2018-01-19T10:23:45.324Z,79.83
2018-01-19T10:24:45.322Z,79.25
2018-01-19T10:25:45.308Z,79.54
2018-01-19T10:26:45.291Z,79.54
2018-01-19T10:27:45.286Z,79.63
2018-01-19T10:28:45.278Z,80.49
2018-01-19T10:29:45.263Z,79.50
2018-01-19T10:30:45.269Z,79.41
2018-01-19T10:31:45.263Z,79.22
2018-01-19T10:32:45.254Z,79.79
2018-01-19T10:33:45.234Z,79.97
2018-01-19T10:34:45.242Z,79.88
2018-01-19T10:35:45.224Z,80.35
2018-01-19T10:36:45.261Z,80.55
2018-01-19T10:37:45.220Z,80.16
2018-01-19T10:38:45.197Z,80.26
2018-01-19T10:39:45.192Z,80.16
2018-01-19T10:40:45.181Z,81.12
2018-01-19T10:41:45.172Z,80.93
2018-01-19T10:42:45.170Z,80.83
2018-01-19T10:43:45.168Z,80.45
2018-01-19T10:44:45.162Z,79.97
2018-01-19T10:45:45.150Z,79.97
2018-01-19T10:46:45.125Z,80.16
2018-01-19T10:47:45.123Z,80.16
2018-01-19T10:48:45.111Z,79.69
2018-01-19T10:49:45.110Z,79.88
2018-01-19T10:50:45.097Z,79.60
2018-01-19T10:51:45.101Z,79.16
2018-01-19T10:52:45.098Z,78.64
2018-01-19T10:53:45.074Z,78.88
2018-01-19T10:54:45.069Z,78.88
2018-01-19T10:55:45.075Z,78.69
2018-01-19T10:56:45.053Z,78.78
2018-01-19T10:57:45.045Z,78.40
2018-01-19T10:58:45.039Z,78.69
2018-01-19T10:59:45.026Z,78.59
2018-01-19T11:00:45.024Z,78.50
2018-01-19T11:01:45.023Z,78.69
2018-01-19T11:02:45.011Z,78.11
2018-01-19T11:03:45.005Z,78.02
2018-01-19T11:04:45.015Z,78.11
2018-01-19T11:05:45.020Z,77.26
2018-01-19T11:06:44.980Z,77.36
2018-01-19T11:07:44.983Z,77.26
2018-01-19T11:08:44.962Z,76.97
2018-01-19T11:09:44.946Z,76.69
2018-01-19T11:10:44.950Z,76.59
2018-01-19T11:11:44.941Z,76.21
2018-01-19T11:12:44.926Z,76.78
2018-01-19T11:13:44.920Z,76.59
2018-01-19T11:14:44.917Z,76.31
2018-01-19T11:15:44.909Z,76.40
2018-01-19T11:16:44.894Z,76.69
2018-01-19T11:17:44.895Z,76.50
2018-01-19T11:18:44.885Z,76.69
2018-01-19T11:19:44.876Z,76.97
2018-01-19T11:20:44.877Z,76.78
2018-01-19T11:21:44.870Z,76.88
2018-01-19T11:22:44.844Z,76.50
2018-01-19T11:23:44.849Z,76.69
2018-01-19T11:24:44.838Z,76.31
2018-01-19T11:25:44.827Z,75.84
2018-01-19T11:26:44.818Z,75.84
2018-01-19T11:27:44.809Z,75.26
2018-01-19T11:28:44.807Z,75.07
2018-01-19T11:29:44.831Z,74.79
2018-01-19T11:30:44.794Z,74.51
2018-01-19T11:31:44.794Z,73.84
2018-01-19T11:32:44.852Z,73.46
2018-01-19T11:33:44.793Z,73.74
2018-01-19T11:34:44.830Z,73.36
2018-01-19T11:35:44.883Z,73.55
2018-01-19T11:36:44.867Z,73.65
2018-01-19T11:37:44.893Z,72.89
2018-01-19T11:38:44.864Z,72.55
2018-01-19T11:39:44.806Z,72.92
2018-01-19T11:40:44.718Z,73.11
2018-01-19T11:41:44.711Z,73.21
2018-01-19T11:42:44.710Z,74.26
2018-01-19T11:43:44.691Z,73.88
2018-01-19T11:44:44.681Z,73.69
2018-01-19T11:45:44.683Z,73.97
2018-01-19T11:46:44.672Z,73.18
2018-01-19T11:47:44.671Z,73.18
2018-01-19T11:48:44.657Z,73.55
2018-01-19T11:49:44.678Z,73.08
2018-01-19T11:50:44.653Z,73.55
2018-01-19T11:51:44.674Z,73.74
2018-01-19T11:52:44.639Z,74.41
2018-01-19T11:53:44.630Z,74.31
2018-01-19T11:54:44.613Z,73.84
2018-01-19T11:55:44.607Z,73.84
2018-01-19T11:56:44.591Z,73.18
2018-01-19T11:57:44.592Z,73.27
2018-01-19T11:58:44.581Z,73.65
2018-01-19T11:59:44.578Z,73.27
2018-01-19T12:00:44.562Z,73.36
2018-01-19T12:01:44.574Z,72.99
2018-01-19T12:02:44.588Z,73.27
2018-01-19T12:03:44.543Z,72.89
2018-01-19T12:04:44.537Z,72.89
2018-01-19T12:05:44.540Z,72.79
2018-01-19T12:06:44.531Z,71.94
2018-01-19T12:07:44.509Z,72.70
2018-01-19T12:08:44.506Z,73.18
2018-01-19T12:09:44.510Z,72.70
2018-01-19T12:10:44.514Z,72.79
2018-01-19T12:11:44.489Z,72.41
2018-01-19T12:12:44.468Z,73.27
2018-01-19T12:13:44.477Z,73.18
2018-01-19T12:14:44.457Z,72.89
2018-01-19T12:15:44.466Z,73.55
2018-01-19T12:16:44.438Z,73.46
2018-01-19T12:17:44.443Z,73.84
2018-01-19T12:18:44.417Z,74.03
2018-01-19T12:19:44.412Z,73.36
2018-01-19T12:20:44.415Z,72.89
2018-01-19T12:21:44.399Z,72.41
2018-01-19T12:22:44.389Z,72.22
2018-01-19T12:23:44.390Z,71.27
2018-01-19T12:24:44.373Z,70.99
2018-01-19T12:25:44.366Z,70.79
2018-01-19T12:26:44.367Z,71.02
2018-01-19T12:27:44.365Z,70.83
2018-01-19T12:28:44.351Z,70.93
2018-01-19T12:29:44.365Z,70.64
2018-01-19T12:30:44.326Z,70.93
2018-01-19T12:31:44.324Z,71.50
2018-01-19T12:32:44.323Z,70.45
2018-01-19T12:33:44.311Z,69.79
2018-01-19T12:34:44.302Z,69.31
2018-01-19T12:35:44.290Z,69.50
2018-01-19T12:36:44.295Z,68.71
2018-01-19T12:37:44.302Z,69.09
2018-01-19T12:38:44.279Z,68.71
2018-01-19T12:39:44.265Z,69.09
2018-01-19T12:40:44.253Z,69.56
2018-01-19T12:41:44.282Z,69.46
2018-01-19T12:42:44.250Z,69.66
2018-01-19T12:43:44.245Z,70.04
2018-01-19T12:44:44.242Z,70.32
2018-01-19T12:45:44.221Z,69.66
2018-01-19T12:46:44.214Z,70.04
2018-01-19T12:47:44.204Z,70.23
2018-01-19T12:48:44.199Z,70.32
2018-01-19T12:49:44.186Z,70.32
2018-01-19T12:50:44.175Z,70.32
2018-01-19T12:51:44.176Z,70.61
2018-01-19T12:52:44.159Z,70.79